sensor_id;sensor_type;location;lat;lon;timestamp;temperature;humidity
51982;DHT22;37998;53.416;6.730;2022-08-03T00:01:58;19.60;99.90
51982;DHT22;37998;53.416;6.730;2022-08-03T00:04:24;19.70;99.90
51982;DHT22;37998;53.416;6.730;2022-08-03T00:06:49;19.70;99.90
51982;DHT22;37998;53.416;6.730;2022-08-03T00:09:15;19.60;99.90
51982;DHT22;37998;53.416;6.730;2022-08-03T00:11:41;19.70;99.90
51982;DHT22;37998;53.416;6.730;2022-08-03T00:14:07;19.60;99.90
51982;DHT22;37998;53.416;6.730;2022-08-03T00:16:33;19.60;99.90
51982;DHT22;37998;53.416;6.730;2022-08-03T00:18:59;19.70;99.90
51982;DHT22;37998;53.416;6.730;2022-08-03T00:21:25;19.60;99.90
51982;DHT22;37998;53.416;6.730;2022-08-03T00:23:51;19.60;99.90
51982;DHT22;37998;53.416;6.730;2022-08-03T00:26:17;19.60;99.90
51982;DHT22;37998;53.416;6.730;2022-08-03T00:28:42;19.50;99.90
51982;DHT22;37998;53.416;6.730;2022-08-03T00:31:08;19.50;99.90
51982;DHT22;37998;53.416;6.730;2022-08-03T00:33:33;19.50;99.90
51982;DHT22;37998;53.416;6.730;2022-08-03T00:35:59;19.50;99.90
51982;DHT22;37998;53.416;6.730;2022-08-03T00:38:25;19.30;99.90
51982;DHT22;37998;53.416;6.730;2022-08-03T00:40:50;19.30;99.90
51982;DHT22;37998;53.416;6.730;2022-08-03T00:43:17;19.30;99.90
51982;DHT22;37998;53.416;6.730;2022-08-03T00:45:43;19.30;99.90
51982;DHT22;37998;53.416;6.730;2022-08-03T00:48:10;19.30;99.90
51982;DHT22;37998;53.416;6.730;2022-08-03T00:50:39;19.30;99.90
51982;DHT22;37998;53.416;6.730;2022-08-03T00:53:07;19.40;99.90
51982;DHT22;37998;53.416;6.730;2022-08-03T00:55:35;19.30;99.90
51982;DHT22;37998;53.416;6.730;2022-08-03T00:58:02;19.40;99.90
51982;DHT22;37998;53.416;6.730;2022-08-03T01:00:32;19.40;99.90
51982;DHT22;37998;53.416;6.730;2022-08-03T01:03:00;19.40;99.90
51982;DHT22;37998;53.416;6.730;2022-08-03T01:05:27;19.40;99.90
51982;DHT22;37998;53.416;6.730;2022-08-03T01:10:46;19.30;99.90
51982;DHT22;37998;53.416;6.730;2022-08-03T01:13:43;19.30;99.90
51982;DHT22;37998;53.416;6.730;2022-08-03T01:16:36;19.30;99.90
51982;DHT22;37998;53.416;6.730;2022-08-03T01:22:14;19.20;99.90
51982;DHT22;37998;53.416;6.730;2022-08-03T01:30:31;19.20;99.90
51982;DHT22;37998;53.416;6.730;2022-08-03T01:33:02;19.20;99.90
51982;DHT22;37998;53.416;6.730;2022-08-03T01:38:22;19.20;99.90
51982;DHT22;37998;53.416;6.730;2022-08-03T01:40:49;19.20;99.90
51982;DHT22;37998;53.416;6.730;2022-08-03T01:43:18;19.20;99.90
51982;DHT22;37998;53.416;6.730;2022-08-03T01:45:46;19.20;99.90
51982;DHT22;37998;53.416;6.730;2022-08-03T01:48:15;19.20;99.90
51982;DHT22;37998;53.416;6.730;2022-08-03T01:50:42;19.20;99.90
51982;DHT22;37998;53.416;6.730;2022-08-03T01:53:09;19.20;99.90
51982;DHT22;37998;53.416;6.730;2022-08-03T01:55:36;19.10;99.90
51982;DHT22;37998;53.416;6.730;2022-08-03T01:58:03;19.10;99.90
51982;DHT22;37998;53.416;6.730;2022-08-03T02:00:30;19.00;99.90
51982;DHT22;37998;53.416;6.730;2022-08-03T02:02:57;19.00;99.90
51982;DHT22;37998;53.416;6.730;2022-08-03T02:05:23;19.00;99.90
51982;DHT22;37998;53.416;6.730;2022-08-03T02:07:50;19.00;99.90
51982;DHT22;37998;53.416;6.730;2022-08-03T02:10:19;19.00;99.90
51982;DHT22;37998;53.416;6.730;2022-08-03T02:12:46;19.00;99.90
51982;DHT22;37998;53.416;6.730;2022-08-03T02:15:15;19.00;99.90
51982;DHT22;37998;53.416;6.730;2022-08-03T02:17:41;19.00;99.90
51982;DHT22;37998;53.416;6.730;2022-08-03T02:20:10;19.00;99.90
51982;DHT22;37998;53.416;6.730;2022-08-03T02:22:42;19.00;99.90
51982;DHT22;37998;53.416;6.730;2022-08-03T02:25:10;19.00;99.90
51982;DHT22;37998;53.416;6.730;2022-08-03T02:27:38;18.90;99.90
51982;DHT22;37998;53.416;6.730;2022-08-03T02:30:07;18.90;99.90
51982;DHT22;37998;53.416;6.730;2022-08-03T02:32:36;18.90;99.90
51982;DHT22;37998;53.416;6.730;2022-08-03T02:35:03;18.90;99.90
51982;DHT22;37998;53.416;6.730;2022-08-03T02:37:33;18.80;99.90
51982;DHT22;37998;53.416;6.730;2022-08-03T02:40:04;18.90;99.90
51982;DHT22;37998;53.416;6.730;2022-08-03T02:42:34;18.90;99.90
51982;DHT22;37998;53.416;6.730;2022-08-03T02:45:02;18.80;99.90
51982;DHT22;37998;53.416;6.730;2022-08-03T02:47:31;18.80;99.90
51982;DHT22;37998;53.416;6.730;2022-08-03T02:49:58;18.80;99.90
51982;DHT22;37998;53.416;6.730;2022-08-03T02:52:27;18.70;99.90
51982;DHT22;37998;53.416;6.730;2022-08-03T02:54:58;18.70;99.90
51982;DHT22;37998;53.416;6.730;2022-08-03T02:57:26;18.70;99.90
51982;DHT22;37998;53.416;6.730;2022-08-03T02:59:53;18.70;99.90
51982;DHT22;37998;53.416;6.730;2022-08-03T03:02:20;18.70;99.90
51982;DHT22;37998;53.416;6.730;2022-08-03T03:04:48;18.70;99.90
51982;DHT22;37998;53.416;6.730;2022-08-03T03:07:15;18.70;99.90
51982;DHT22;37998;53.416;6.730;2022-08-03T03:09:42;18.70;99.90
51982;DHT22;37998;53.416;6.730;2022-08-03T03:12:09;18.70;99.90
51982;DHT22;37998;53.416;6.730;2022-08-03T03:14:36;18.70;99.90
51982;DHT22;37998;53.416;6.730;2022-08-03T03:17:05;18.60;99.90
51982;DHT22;37998;53.416;6.730;2022-08-03T03:19:31;18.60;99.90
51982;DHT22;37998;53.416;6.730;2022-08-03T03:21:59;18.60;99.90
51982;DHT22;37998;53.416;6.730;2022-08-03T03:24:27;18.60;99.90
51982;DHT22;37998;53.416;6.730;2022-08-03T03:26:53;18.60;99.90
51982;DHT22;37998;53.416;6.730;2022-08-03T03:29:20;18.60;99.90
51982;DHT22;37998;53.416;6.730;2022-08-03T03:31:46;18.50;99.90
51982;DHT22;37998;53.416;6.730;2022-08-03T03:34:12;18.40;99.90
51982;DHT22;37998;53.416;6.730;2022-08-03T03:36:38;18.50;99.90
51982;DHT22;37998;53.416;6.730;2022-08-03T03:39:03;18.50;99.90
51982;DHT22;37998;53.416;6.730;2022-08-03T03:41:29;18.40;99.90
51982;DHT22;37998;53.416;6.730;2022-08-03T03:43:55;18.40;99.90
51982;DHT22;37998;53.416;6.730;2022-08-03T03:46:21;18.40;99.90
51982;DHT22;37998;53.416;6.730;2022-08-03T03:48:47;18.40;99.90
51982;DHT22;37998;53.416;6.730;2022-08-03T03:51:13;18.40;99.90
51982;DHT22;37998;53.416;6.730;2022-08-03T03:53:39;18.40;99.90
51982;DHT22;37998;53.416;6.730;2022-08-03T03:56:05;18.30;99.90
51982;DHT22;37998;53.416;6.730;2022-08-03T03:58:31;18.40;99.90
51982;DHT22;37998;53.416;6.730;2022-08-03T04:00:57;18.30;99.90
51982;DHT22;37998;53.416;6.730;2022-08-03T04:03:23;18.30;99.90
51982;DHT22;37998;53.416;6.730;2022-08-03T04:05:48;18.30;99.90
51982;DHT22;37998;53.416;6.730;2022-08-03T04:08:33;18.30;99.90
51982;DHT22;37998;53.416;6.730;2022-08-03T04:13:49;18.30;99.90
51982;DHT22;37998;53.416;6.730;2022-08-03T04:16:17;18.30;99.90
51982;DHT22;37998;53.416;6.730;2022-08-03T04:18:46;18.30;99.90
51982;DHT22;37998;53.416;6.730;2022-08-03T04:21:14;18.30;99.90
51982;DHT22;37998;53.416;6.730;2022-08-03T04:23:45;18.40;99.90
51982;DHT22;37998;53.416;6.730;2022-08-03T04:26:15;18.30;99.90
51982;DHT22;37998;53.416;6.730;2022-08-03T04:28:44;18.30;99.90
51982;DHT22;37998;53.416;6.730;2022-08-03T04:31:12;18.30;99.90
51982;DHT22;37998;53.416;6.730;2022-08-03T04:33:38;18.30;99.90
51982;DHT22;37998;53.416;6.730;2022-08-03T04:36:07;18.30;99.90
51982;DHT22;37998;53.416;6.730;2022-08-03T04:39:28;18.30;99.90
51982;DHT22;37998;53.416;6.730;2022-08-03T04:41:30;18.30;99.90
51982;DHT22;37998;53.416;6.730;2022-08-03T04:43:58;18.30;99.90
51982;DHT22;37998;53.416;6.730;2022-08-03T04:46:36;18.30;99.90
51982;DHT22;37998;53.416;6.730;2022-08-03T04:49:03;18.30;99.90
51982;DHT22;37998;53.416;6.730;2022-08-03T04:51:30;18.30;99.90
51982;DHT22;37998;53.416;6.730;2022-08-03T04:53:56;18.40;99.90
51982;DHT22;37998;53.416;6.730;2022-08-03T04:56:21;18.40;99.90
51982;DHT22;37998;53.416;6.730;2022-08-03T04:58:47;18.40;99.90
51982;DHT22;37998;53.416;6.730;2022-08-03T05:01:14;18.40;99.90
51982;DHT22;37998;53.416;6.730;2022-08-03T05:03:40;18.50;99.90
51982;DHT22;37998;53.416;6.730;2022-08-03T05:06:05;18.50;99.90
51982;DHT22;37998;53.416;6.730;2022-08-03T05:08:31;18.70;99.90
51982;DHT22;37998;53.416;6.730;2022-08-03T05:10:57;18.60;99.90
51982;DHT22;37998;53.416;6.730;2022-08-03T05:13:22;18.70;99.90
51982;DHT22;37998;53.416;6.730;2022-08-03T05:15:48;18.70;99.90
51982;DHT22;37998;53.416;6.730;2022-08-03T05:18:14;18.80;99.90
51982;DHT22;37998;53.416;6.730;2022-08-03T05:20:39;18.80;99.90
51982;DHT22;37998;53.416;6.730;2022-08-03T05:23:05;18.90;99.90
51982;DHT22;37998;53.416;6.730;2022-08-03T05:25:31;18.90;99.90
51982;DHT22;37998;53.416;6.730;2022-08-03T05:27:56;19.00;99.90
51982;DHT22;37998;53.416;6.730;2022-08-03T05:30:22;19.10;99.90
51982;DHT22;37998;53.416;6.730;2022-08-03T05:32:47;19.10;99.90
51982;DHT22;37998;53.416;6.730;2022-08-03T05:35:13;19.10;99.90
51982;DHT22;37998;53.416;6.730;2022-08-03T05:37:39;19.20;99.90
51982;DHT22;37998;53.416;6.730;2022-08-03T05:40:05;19.20;99.90
51982;DHT22;37998;53.416;6.730;2022-08-03T05:42:31;19.30;99.90
51982;DHT22;37998;53.416;6.730;2022-08-03T05:44:56;19.40;99.90
51982;DHT22;37998;53.416;6.730;2022-08-03T05:47:22;19.30;99.90
51982;DHT22;37998;53.416;6.730;2022-08-03T05:49:48;19.40;99.90
51982;DHT22;37998;53.416;6.730;2022-08-03T05:52:13;19.40;99.90
51982;DHT22;37998;53.416;6.730;2022-08-03T05:54:39;19.50;99.90
51982;DHT22;37998;53.416;6.730;2022-08-03T05:57:05;19.50;99.90
51982;DHT22;37998;53.416;6.730;2022-08-03T05:59:30;19.60;99.90
51982;DHT22;37998;53.416;6.730;2022-08-03T06:01:56;19.60;99.90
51982;DHT22;37998;53.416;6.730;2022-08-03T06:04:22;19.80;99.90
51982;DHT22;37998;53.416;6.730;2022-08-03T06:06:47;19.80;99.90
51982;DHT22;37998;53.416;6.730;2022-08-03T06:09:15;19.90;99.90
51982;DHT22;37998;53.416;6.730;2022-08-03T06:11:41;19.90;99.90
51982;DHT22;37998;53.416;6.730;2022-08-03T06:14:07;20.00;99.90
51982;DHT22;37998;53.416;6.730;2022-08-03T06:16:32;20.10;99.90
51982;DHT22;37998;53.416;6.730;2022-08-03T06:18:58;20.20;99.90
51982;DHT22;37998;53.416;6.730;2022-08-03T06:21:24;20.20;99.90
51982;DHT22;37998;53.416;6.730;2022-08-03T06:23:49;20.20;99.90
51982;DHT22;37998;53.416;6.730;2022-08-03T06:26:15;20.30;99.90
51982;DHT22;37998;53.416;6.730;2022-08-03T06:28:43;20.40;99.90
51982;DHT22;37998;53.416;6.730;2022-08-03T06:31:09;20.30;99.90
51982;DHT22;37998;53.416;6.730;2022-08-03T06:33:35;20.50;99.90
51982;DHT22;37998;53.416;6.730;2022-08-03T06:36:00;20.60;99.90
51982;DHT22;37998;53.416;6.730;2022-08-03T06:38:26;20.60;99.90
51982;DHT22;37998;53.416;6.730;2022-08-03T06:40:51;20.70;99.90
51982;DHT22;37998;53.416;6.730;2022-08-03T06:43:17;20.70;99.90
51982;DHT22;37998;53.416;6.730;2022-08-03T06:45:43;20.80;99.90
51982;DHT22;37998;53.416;6.730;2022-08-03T06:48:11;20.90;99.90
51982;DHT22;37998;53.416;6.730;2022-08-03T06:50:39;20.90;99.90
51982;DHT22;37998;53.416;6.730;2022-08-03T06:53:09;21.00;99.90
51982;DHT22;37998;53.416;6.730;2022-08-03T06:55:35;21.00;99.90
51982;DHT22;37998;53.416;6.730;2022-08-03T06:58:00;21.10;99.90
51982;DHT22;37998;53.416;6.730;2022-08-03T07:00:26;21.20;99.90
51982;DHT22;37998;53.416;6.730;2022-08-03T07:02:53;21.20;99.90
51982;DHT22;37998;53.416;6.730;2022-08-03T07:05:18;21.20;99.90
51982;DHT22;37998;53.416;6.730;2022-08-03T07:07:44;21.30;99.90
51982;DHT22;37998;53.416;6.730;2022-08-03T07:10:10;21.40;99.90
51982;DHT22;37998;53.416;6.730;2022-08-03T07:12:38;21.50;99.90
51982;DHT22;37998;53.416;6.730;2022-08-03T07:15:05;21.60;99.90
51982;DHT22;37998;53.416;6.730;2022-08-03T07:17:33;21.80;99.90
51982;DHT22;37998;53.416;6.730;2022-08-03T07:20:00;21.90;99.90
51982;DHT22;37998;53.416;6.730;2022-08-03T07:22:26;22.00;99.90
51982;DHT22;37998;53.416;6.730;2022-08-03T07:24:52;22.10;99.90
51982;DHT22;37998;53.416;6.730;2022-08-03T07:27:18;22.10;99.90
51982;DHT22;37998;53.416;6.730;2022-08-03T07:29:44;22.20;99.90
51982;DHT22;37998;53.416;6.730;2022-08-03T07:32:09;22.30;99.90
51982;DHT22;37998;53.416;6.730;2022-08-03T07:34:35;22.50;99.90
51982;DHT22;37998;53.416;6.730;2022-08-03T07:37:00;22.50;99.90
51982;DHT22;37998;53.416;6.730;2022-08-03T07:39:26;22.60;99.90
51982;DHT22;37998;53.416;6.730;2022-08-03T07:41:52;22.70;99.90
51982;DHT22;37998;53.416;6.730;2022-08-03T07:44:18;22.80;99.90
51982;DHT22;37998;53.416;6.730;2022-08-03T07:46:44;22.80;99.90
51982;DHT22;37998;53.416;6.730;2022-08-03T07:49:10;22.80;99.90
51982;DHT22;37998;53.416;6.730;2022-08-03T07:51:36;22.90;99.90
51982;DHT22;37998;53.416;6.730;2022-08-03T07:54:02;22.90;99.90
51982;DHT22;37998;53.416;6.730;2022-08-03T07:56:28;23.00;99.90
51982;DHT22;37998;53.416;6.730;2022-08-03T07:58:54;23.10;99.90
51982;DHT22;37998;53.416;6.730;2022-08-03T08:01:20;23.20;99.90
51982;DHT22;37998;53.416;6.730;2022-08-03T08:03:46;23.30;99.90
51982;DHT22;37998;53.416;6.730;2022-08-03T08:06:12;23.30;99.90
51982;DHT22;37998;53.416;6.730;2022-08-03T08:08:38;23.40;99.90
51982;DHT22;37998;53.416;6.730;2022-08-03T08:11:04;23.50;99.90
51982;DHT22;37998;53.416;6.730;2022-08-03T08:13:30;23.50;99.90
51982;DHT22;37998;53.416;6.730;2022-08-03T08:15:56;23.60;99.90
51982;DHT22;37998;53.416;6.730;2022-08-03T08:18:22;23.70;99.90
51982;DHT22;37998;53.416;6.730;2022-08-03T08:20:49;23.90;99.90
51982;DHT22;37998;53.416;6.730;2022-08-03T08:23:15;24.00;99.90
51982;DHT22;37998;53.416;6.730;2022-08-03T08:25:48;24.10;99.90
51982;DHT22;37998;53.416;6.730;2022-08-03T08:28:15;24.40;99.90
51982;DHT22;37998;53.416;6.730;2022-08-03T08:30:41;24.60;99.90
51982;DHT22;37998;53.416;6.730;2022-08-03T08:33:07;24.80;99.90
51982;DHT22;37998;53.416;6.730;2022-08-03T08:35:32;25.10;99.90
51982;DHT22;37998;53.416;6.730;2022-08-03T08:38:01;25.10;99.90
51982;DHT22;37998;53.416;6.730;2022-08-03T08:40:27;25.20;99.90
51982;DHT22;37998;53.416;6.730;2022-08-03T08:42:53;25.40;99.90
51982;DHT22;37998;53.416;6.730;2022-08-03T08:45:19;25.30;99.90
51982;DHT22;37998;53.416;6.730;2022-08-03T08:47:46;25.20;99.90
51982;DHT22;37998;53.416;6.730;2022-08-03T08:50:14;25.20;99.90
51982;DHT22;37998;53.416;6.730;2022-08-03T08:52:42;25.20;99.90
51982;DHT22;37998;53.416;6.730;2022-08-03T08:55:13;25.10;99.90
51982;DHT22;37998;53.416;6.730;2022-08-03T08:57:51;25.10;99.90
51982;DHT22;37998;53.416;6.730;2022-08-03T09:00:20;25.10;99.90
51982;DHT22;37998;53.416;6.730;2022-08-03T09:02:46;25.10;99.90
51982;DHT22;37998;53.416;6.730;2022-08-03T09:05:16;25.10;99.90
51982;DHT22;37998;53.416;6.730;2022-08-03T09:07:44;25.20;99.90
51982;DHT22;37998;53.416;6.730;2022-08-03T09:10:12;25.30;99.90
51982;DHT22;37998;53.416;6.730;2022-08-03T09:12:45;25.30;99.90
51982;DHT22;37998;53.416;6.730;2022-08-03T09:15:21;25.20;99.90
51982;DHT22;37998;53.416;6.730;2022-08-03T09:17:48;25.10;99.90
51982;DHT22;37998;53.416;6.730;2022-08-03T09:20:14;25.00;99.90
51982;DHT22;37998;53.416;6.730;2022-08-03T09:23:01;25.10;99.90
51982;DHT22;37998;53.416;6.730;2022-08-03T09:25:34;25.20;99.90
51982;DHT22;37998;53.416;6.730;2022-08-03T09:28:13;25.30;99.90
51982;DHT22;37998;53.416;6.730;2022-08-03T09:30:41;25.40;99.90
51982;DHT22;37998;53.416;6.730;2022-08-03T09:33:15;25.50;99.90
51982;DHT22;37998;53.416;6.730;2022-08-03T09:35:45;25.60;99.90
51982;DHT22;37998;53.416;6.730;2022-08-03T09:38:12;25.60;99.90
51982;DHT22;37998;53.416;6.730;2022-08-03T09:40:38;25.60;99.90
51982;DHT22;37998;53.416;6.730;2022-08-03T09:43:05;25.60;99.90
51982;DHT22;37998;53.416;6.730;2022-08-03T09:45:33;25.60;99.90
51982;DHT22;37998;53.416;6.730;2022-08-03T09:48:19;25.70;99.90
51982;DHT22;37998;53.416;6.730;2022-08-03T09:51:12;25.80;99.90
51982;DHT22;37998;53.416;6.730;2022-08-03T09:53:43;25.90;99.90
51982;DHT22;37998;53.416;6.730;2022-08-03T09:56:09;26.00;99.90
51982;DHT22;37998;53.416;6.730;2022-08-03T09:58:46;26.00;99.90
51982;DHT22;37998;53.416;6.730;2022-08-03T10:01:12;26.30;99.90
51982;DHT22;37998;53.416;6.730;2022-08-03T10:03:39;26.40;99.90
51982;DHT22;37998;53.416;6.730;2022-08-03T10:06:18;26.40;99.90
51982;DHT22;37998;53.416;6.730;2022-08-03T10:08:45;26.40;99.90
51982;DHT22;37998;53.416;6.730;2022-08-03T10:11:10;26.30;99.90
51982;DHT22;37998;53.416;6.730;2022-08-03T10:13:37;26.40;99.90
51982;DHT22;37998;53.416;6.730;2022-08-03T10:16:03;26.50;99.90
51982;DHT22;37998;53.416;6.730;2022-08-03T10:18:29;26.50;99.90
51982;DHT22;37998;53.416;6.730;2022-08-03T10:21:03;26.60;99.90
51982;DHT22;37998;53.416;6.730;2022-08-03T10:23:33;26.80;99.90
51982;DHT22;37998;53.416;6.730;2022-08-03T10:26:01;27.00;99.90
51982;DHT22;37998;53.416;6.730;2022-08-03T10:28:32;26.90;99.90
51982;DHT22;37998;53.416;6.730;2022-08-03T10:30:59;26.90;99.90
51982;DHT22;37998;53.416;6.730;2022-08-03T10:33:31;27.10;99.90
51982;DHT22;37998;53.416;6.730;2022-08-03T10:35:59;27.20;99.90
51982;DHT22;37998;53.416;6.730;2022-08-03T10:38:36;27.30;99.90
51982;DHT22;37998;53.416;6.730;2022-08-03T10:41:03;27.40;99.90
51982;DHT22;37998;53.416;6.730;2022-08-03T10:43:57;27.40;99.90
51982;DHT22;37998;53.416;6.730;2022-08-03T10:46:27;27.40;99.90
51982;DHT22;37998;53.416;6.730;2022-08-03T10:48:54;27.50;99.90
51982;DHT22;37998;53.416;6.730;2022-08-03T10:51:21;27.60;99.90
51982;DHT22;37998;53.416;6.730;2022-08-03T10:53:47;27.70;99.90
51982;DHT22;37998;53.416;6.730;2022-08-03T10:59:21;27.70;99.90
51982;DHT22;37998;53.416;6.730;2022-08-03T11:02:01;27.50;99.90
51982;DHT22;37998;53.416;6.730;2022-08-03T11:04:27;27.60;99.90
51982;DHT22;37998;53.416;6.730;2022-08-03T11:09:47;28.00;99.90
51982;DHT22;37998;53.416;6.730;2022-08-03T11:12:30;28.10;99.90
51982;DHT22;37998;53.416;6.730;2022-08-03T11:15:06;28.10;99.90
51982;DHT22;37998;53.416;6.730;2022-08-03T11:17:33;28.10;99.90
51982;DHT22;37998;53.416;6.730;2022-08-03T11:19:59;28.10;99.90
51982;DHT22;37998;53.416;6.730;2022-08-03T11:22:48;28.20;99.90
51982;DHT22;37998;53.416;6.730;2022-08-03T11:25:15;28.40;99.40
51982;DHT22;37998;53.416;6.730;2022-08-03T11:27:41;28.50;99.60
51982;DHT22;37998;53.416;6.730;2022-08-03T11:30:09;28.60;99.60
51982;DHT22;37998;53.416;6.730;2022-08-03T11:35:23;28.60;99.40
51982;DHT22;37998;53.416;6.730;2022-08-03T11:43:07;28.40;98.30
51982;DHT22;37998;53.416;6.730;2022-08-03T11:45:35;28.20;98.70
51982;DHT22;37998;53.416;6.730;2022-08-03T11:48:21;28.30;98.80
51982;DHT22;37998;53.416;6.730;2022-08-03T11:50:47;28.40;97.90
51982;DHT22;37998;53.416;6.730;2022-08-03T11:53:15;28.40;97.70
51982;DHT22;37998;53.416;6.730;2022-08-03T11:55:44;28.50;97.50
51982;DHT22;37998;53.416;6.730;2022-08-03T11:58:20;28.70;97.50
51982;DHT22;37998;53.416;6.730;2022-08-03T12:00:47;28.70;97.70
51982;DHT22;37998;53.416;6.730;2022-08-03T12:03:14;28.70;97.70
51982;DHT22;37998;53.416;6.730;2022-08-03T12:05:51;28.80;97.60
51982;DHT22;37998;53.416;6.730;2022-08-03T12:08:28;29.00;96.60
51982;DHT22;37998;53.416;6.730;2022-08-03T12:10:56;29.00;96.90
51982;DHT22;37998;53.416;6.730;2022-08-03T12:13:23;29.00;96.70
51982;DHT22;37998;53.416;6.730;2022-08-03T12:15:55;28.90;96.50
51982;DHT22;37998;53.416;6.730;2022-08-03T12:18:22;28.90;96.40
51982;DHT22;37998;53.416;6.730;2022-08-03T12:20:52;28.90;96.60
51982;DHT22;37998;53.416;6.730;2022-08-03T12:23:19;29.00;96.40
51982;DHT22;37998;53.416;6.730;2022-08-03T12:25:46;29.10;96.30
51982;DHT22;37998;53.416;6.730;2022-08-03T12:28:19;29.20;96.30
51982;DHT22;37998;53.416;6.730;2022-08-03T12:30:49;29.30;95.80
51982;DHT22;37998;53.416;6.730;2022-08-03T12:33:17;29.30;95.70
51982;DHT22;37998;53.416;6.730;2022-08-03T12:35:45;29.30;95.90
51982;DHT22;37998;53.416;6.730;2022-08-03T12:38:11;29.20;96.10
51982;DHT22;37998;53.416;6.730;2022-08-03T12:40:38;29.20;96.40
51982;DHT22;37998;53.416;6.730;2022-08-03T12:43:13;29.30;96.60
51982;DHT22;37998;53.416;6.730;2022-08-03T12:45:39;29.40;96.00
51982;DHT22;37998;53.416;6.730;2022-08-03T12:48:08;29.30;96.20
51982;DHT22;37998;53.416;6.730;2022-08-03T12:50:36;29.20;96.30
51982;DHT22;37998;53.416;6.730;2022-08-03T12:53:05;29.20;96.50
51982;DHT22;37998;53.416;6.730;2022-08-03T12:55:32;29.20;96.40
51982;DHT22;37998;53.416;6.730;2022-08-03T12:58:07;29.20;96.30
51982;DHT22;37998;53.416;6.730;2022-08-03T13:00:36;29.20;96.10
51982;DHT22;37998;53.416;6.730;2022-08-03T13:03:04;29.30;96.40
51982;DHT22;37998;53.416;6.730;2022-08-03T13:05:31;29.20;96.20
51982;DHT22;37998;53.416;6.730;2022-08-03T13:08:19;29.20;96.30
51982;DHT22;37998;53.416;6.730;2022-08-03T13:10:46;29.20;96.20
51982;DHT22;37998;53.416;6.730;2022-08-03T13:13:12;29.20;96.30
51982;DHT22;37998;53.416;6.730;2022-08-03T13:15:37;29.20;96.10
51982;DHT22;37998;53.416;6.730;2022-08-03T13:18:03;29.10;95.80
51982;DHT22;37998;53.416;6.730;2022-08-03T13:20:29;29.00;95.90
51982;DHT22;37998;53.416;6.730;2022-08-03T13:22:55;29.00;95.80
51982;DHT22;37998;53.416;6.730;2022-08-03T13:25:21;29.00;95.80
51982;DHT22;37998;53.416;6.730;2022-08-03T13:27:47;29.10;95.90
51982;DHT22;37998;53.416;6.730;2022-08-03T13:30:14;29.10;95.60
51982;DHT22;37998;53.416;6.730;2022-08-03T13:32:40;29.10;95.70
51982;DHT22;37998;53.416;6.730;2022-08-03T13:35:07;29.10;96.00
51982;DHT22;37998;53.416;6.730;2022-08-03T13:37:33;29.10;96.10
51982;DHT22;37998;53.416;6.730;2022-08-03T13:40:00;29.20;95.80
51982;DHT22;37998;53.416;6.730;2022-08-03T13:42:30;29.20;95.60
51982;DHT22;37998;53.416;6.730;2022-08-03T13:44:56;29.20;95.40
51982;DHT22;37998;53.416;6.730;2022-08-03T13:47:22;29.20;95.30
51982;DHT22;37998;53.416;6.730;2022-08-03T13:49:48;29.20;95.30
51982;DHT22;37998;53.416;6.730;2022-08-03T13:52:15;29.10;95.40
51982;DHT22;37998;53.416;6.730;2022-08-03T13:54:41;29.00;95.30
51982;DHT22;37998;53.416;6.730;2022-08-03T13:57:07;29.00;95.30
51982;DHT22;37998;53.416;6.730;2022-08-03T13:59:32;29.00;95.20
51982;DHT22;37998;53.416;6.730;2022-08-03T14:01:59;29.10;95.20
51982;DHT22;37998;53.416;6.730;2022-08-03T14:04:24;29.00;95.20
51982;DHT22;37998;53.416;6.730;2022-08-03T14:06:50;29.00;95.10
51982;DHT22;37998;53.416;6.730;2022-08-03T14:09:15;29.00;95.10
51982;DHT22;37998;53.416;6.730;2022-08-03T14:11:42;29.00;95.30
51982;DHT22;37998;53.416;6.730;2022-08-03T14:14:08;29.00;95.40
51982;DHT22;37998;53.416;6.730;2022-08-03T14:16:35;29.10;95.30
51982;DHT22;37998;53.416;6.730;2022-08-03T14:19:00;29.10;95.20
51982;DHT22;37998;53.416;6.730;2022-08-03T14:21:26;29.10;95.10
51982;DHT22;37998;53.416;6.730;2022-08-03T14:23:52;29.00;95.00
51982;DHT22;37998;53.416;6.730;2022-08-03T14:26:17;28.90;95.00
51982;DHT22;37998;53.416;6.730;2022-08-03T14:28:44;28.90;95.10
51982;DHT22;37998;53.416;6.730;2022-08-03T14:31:10;28.90;95.10
51982;DHT22;37998;53.416;6.730;2022-08-03T14:33:36;28.90;94.80
51982;DHT22;37998;53.416;6.730;2022-08-03T14:36:02;28.90;94.70
51982;DHT22;37998;53.416;6.730;2022-08-03T14:38:27;28.80;94.50
51982;DHT22;37998;53.416;6.730;2022-08-03T14:40:53;28.80;94.50
51982;DHT22;37998;53.416;6.730;2022-08-03T14:43:19;28.70;94.40
51982;DHT22;37998;53.416;6.730;2022-08-03T14:45:49;28.70;94.20
51982;DHT22;37998;53.416;6.730;2022-08-03T14:48:17;28.70;93.50
51982;DHT22;37998;53.416;6.730;2022-08-03T14:50:43;28.70;93.30
51982;DHT22;37998;53.416;6.730;2022-08-03T14:53:08;28.70;92.40
51982;DHT22;37998;53.416;6.730;2022-08-03T14:55:34;28.60;92.10
51982;DHT22;37998;53.416;6.730;2022-08-03T14:58:00;28.60;91.90
51982;DHT22;37998;53.416;6.730;2022-08-03T15:00:34;28.60;92.10
51982;DHT22;37998;53.416;6.730;2022-08-03T15:03:00;28.60;91.90
51982;DHT22;37998;53.416;6.730;2022-08-03T15:05:26;28.50;92.10
51982;DHT22;37998;53.416;6.730;2022-08-03T15:07:51;28.50;91.90
51982;DHT22;37998;53.416;6.730;2022-08-03T15:10:17;28.40;91.70
51982;DHT22;37998;53.416;6.730;2022-08-03T15:12:43;28.40;91.70
51982;DHT22;37998;53.416;6.730;2022-08-03T15:15:09;28.40;92.00
51982;DHT22;37998;53.416;6.730;2022-08-03T15:17:34;28.20;94.50
51982;DHT22;37998;53.416;6.730;2022-08-03T15:20:00;27.90;96.10
51982;DHT22;37998;53.416;6.730;2022-08-03T15:22:26;27.40;97.40
51982;DHT22;37998;53.416;6.730;2022-08-03T15:24:51;26.90;98.40
51982;DHT22;37998;53.416;6.730;2022-08-03T15:27:20;26.60;99.40
51982;DHT22;37998;53.416;6.730;2022-08-03T15:29:46;26.50;99.90
51982;DHT22;37998;53.416;6.730;2022-08-03T15:32:12;26.40;99.90
51982;DHT22;37998;53.416;6.730;2022-08-03T15:34:37;26.30;99.90
51982;DHT22;37998;53.416;6.730;2022-08-03T15:37:03;26.30;99.90
51982;DHT22;37998;53.416;6.730;2022-08-03T15:39:29;26.20;99.90
51982;DHT22;37998;53.416;6.730;2022-08-03T15:41:55;26.20;99.90
51982;DHT22;37998;53.416;6.730;2022-08-03T15:44:21;26.10;99.90
51982;DHT22;37998;53.416;6.730;2022-08-03T15:46:47;26.10;99.90
51982;DHT22;37998;53.416;6.730;2022-08-03T15:49:13;26.00;99.90
51982;DHT22;37998;53.416;6.730;2022-08-03T15:51:38;25.90;99.90
51982;DHT22;37998;53.416;6.730;2022-08-03T15:54:05;25.90;99.90
51982;DHT22;37998;53.416;6.730;2022-08-03T15:56:31;25.80;99.90
51982;DHT22;37998;53.416;6.730;2022-08-03T15:58:57;25.80;99.90
51982;DHT22;37998;53.416;6.730;2022-08-03T16:01:23;25.70;99.90
51982;DHT22;37998;53.416;6.730;2022-08-03T16:03:50;25.60;99.90
51982;DHT22;37998;53.416;6.730;2022-08-03T16:06:16;25.60;99.90